sensor_id;sensor_type;location;lat;lon;timestamp;pressure;altitude;pressure_sealevel;temperature;humidity
40872;BME280;26591;43.264;26.940;2023-07-22T00:01:12;98823.25;;;22.36;90.65
40872;BME280;26591;43.264;26.940;2023-07-22T00:03:38;98819.47;;;22.54;90.00
40872;BME280;26591;43.264;26.940;2023-07-22T00:06:06;98815.47;;;22.57;88.35
40872;BME280;26591;43.264;26.940;2023-07-22T00:08:36;98811.88;;;22.51;88.96
40872;BME280;26591;43.264;26.940;2023-07-22T00:11:03;98807.50;;;22.67;89.24
40872;BME280;26591;43.264;26.940;2023-07-22T00:13:29;98798.84;;;22.65;87.96
40872;BME280;26591;43.264;26.940;2023-07-22T00:15:55;98801.06;;;22.51;89.74
40872;BME280;26591;43.264;26.940;2023-07-22T00:18:21;98808.63;;;22.49;89.14
40872;BME280;26591;43.264;26.940;2023-07-22T00:20:47;98800.34;;;22.55;89.16
40872;BME280;26591;43.264;26.940;2023-07-22T00:23:13;98805.47;;;22.57;90.08
40872;BME280;26591;43.264;26.940;2023-07-22T00:25:40;98795.44;;;22.52;90.13
40872;BME280;26591;43.264;26.940;2023-07-22T00:28:06;98789.25;;;22.35;90.42
40872;BME280;26591;43.264;26.940;2023-07-22T00:30:32;98790.81;;;22.31;91.28
40872;BME280;26591;43.264;26.940;2023-07-22T00:32:57;98791.31;;;22.45;91.31
40872;BME280;26591;43.264;26.940;2023-07-22T00:35:23;98789.72;;;22.93;89.45
40872;BME280;26591;43.264;26.940;2023-07-22T00:37:48;98794.69;;;23.29;86.53
40872;BME280;26591;43.264;26.940;2023-07-22T00:40:14;98791.81;;;23.41;84.54
40872;BME280;26591;43.264;26.940;2023-07-22T00:42:41;98793.09;;;23.33;84.32
40872;BME280;26591;43.264;26.940;2023-07-22T00:45:07;98789.78;;;23.26;84.04
40872;BME280;26591;43.264;26.940;2023-07-22T00:47:34;98784.50;;;23.14;84.69
40872;BME280;26591;43.264;26.940;2023-07-22T00:50:02;98775.63;;;22.42;88.59
40872;BME280;26591;43.264;26.940;2023-07-22T00:52:29;98769.94;;;21.82;93.02
40872;BME280;26591;43.264;26.940;2023-07-22T00:54:55;98767.41;;;21.75;95.16
40872;BME280;26591;43.264;26.940;2023-07-22T00:57:22;98764.41;;;22.10;93.71
40872;BME280;26591;43.264;26.940;2023-07-22T00:59:47;98765.63;;;22.20;92.45
40872;BME280;26591;43.264;26.940;2023-07-22T01:02:13;98761.16;;;22.08;92.28
40872;BME280;26591;43.264;26.940;2023-07-22T01:04:39;98753.91;;;22.09;91.96
40872;BME280;26591;43.264;26.940;2023-07-22T01:07:06;98759.06;;;21.93;93.61
40872;BME280;26591;43.264;26.940;2023-07-22T01:09:36;98757.66;;;22.08;93.28
40872;BME280;26591;43.264;26.940;2023-07-22T01:12:02;98755.19;;;22.06;92.13
40872;BME280;26591;43.264;26.940;2023-07-22T01:14:28;98755.88;;;21.97;92.55
40872;BME280;26591;43.264;26.940;2023-07-22T01:16:54;98764.00;;;22.19;91.95
40872;BME280;26591;43.264;26.940;2023-07-22T01:19:20;98758.31;;;21.98;92.47
40872;BME280;26591;43.264;26.940;2023-07-22T01:21:46;98752.16;;;21.63;94.35
40872;BME280;26591;43.264;26.940;2023-07-22T01:24:12;98754.59;;;21.65;94.71
40872;BME280;26591;43.264;26.940;2023-07-22T01:26:38;98737.22;;;21.56;95.48
40872;BME280;26591;43.264;26.940;2023-07-22T01:29:06;98727.66;;;21.14;97.04
40872;BME280;26591;43.264;26.940;2023-07-22T01:31:34;98720.66;;;21.30;96.63
40872;BME280;26591;43.264;26.940;2023-07-22T01:34:01;98723.66;;;21.33;97.06
40872;BME280;26591;43.264;26.940;2023-07-22T01:36:26;98730.22;;;21.94;95.91
40872;BME280;26591;43.264;26.940;2023-07-22T01:38:52;98725.03;;;22.49;91.10
40872;BME280;26591;43.264;26.940;2023-07-22T01:41:17;98733.81;;;22.61;87.93
40872;BME280;26591;43.264;26.940;2023-07-22T01:43:43;98730.63;;;22.42;87.97
40872;BME280;26591;43.264;26.940;2023-07-22T01:46:08;98728.13;;;22.40;87.95
40872;BME280;26591;43.264;26.940;2023-07-22T01:48:34;98726.09;;;22.25;88.85
40872;BME280;26591;43.264;26.940;2023-07-22T01:51:00;98726.88;;;22.04;89.64
40872;BME280;26591;43.264;26.940;2023-07-22T01:53:25;98729.47;;;22.16;88.94
40872;BME280;26591;43.264;26.940;2023-07-22T01:55:51;98723.69;;;22.29;89.58
40872;BME280;26591;43.264;26.940;2023-07-22T01:58:17;98723.63;;;22.24;88.96
40872;BME280;26591;43.264;26.940;2023-07-22T02:00:42;98718.22;;;22.24;88.72
40872;BME280;26591;43.264;26.940;2023-07-22T02:03:08;98725.38;;;22.35;87.49
40872;BME280;26591;43.264;26.940;2023-07-22T02:05:33;98728.81;;;22.31;87.27
40872;BME280;26591;43.264;26.940;2023-07-22T02:07:59;98735.44;;;22.40;87.09
40872;BME280;26591;43.264;26.940;2023-07-22T02:10:24;98737.22;;;21.90;89.48
40872;BME280;26591;43.264;26.940;2023-07-22T02:12:50;98755.34;;;22.17;89.31
40872;BME280;26591;43.264;26.940;2023-07-22T02:15:15;98765.22;;;22.50;87.97
40872;BME280;26591;43.264;26.940;2023-07-22T02:17:41;98785.78;;;22.79;85.68
40872;BME280;26591;43.264;26.940;2023-07-22T02:20:07;98802.31;;;22.88;84.20
40872;BME280;26591;43.264;26.940;2023-07-22T02:22:34;98828.59;;;22.97;84.00
40872;BME280;26591;43.264;26.940;2023-07-22T02:24:59;98845.69;;;22.81;83.57
40872;BME280;26591;43.264;26.940;2023-07-22T02:27:25;98830.88;;;22.61;84.63
40872;BME280;26591;43.264;26.940;2023-07-22T02:29:50;98811.75;;;22.85;83.92
40872;BME280;26591;43.264;26.940;2023-07-22T02:32:17;98804.47;;;23.13;82.28
40872;BME280;26591;43.264;26.940;2023-07-22T02:34:42;98807.78;;;23.42;80.66
40872;BME280;26591;43.264;26.940;2023-07-22T02:37:08;98810.91;;;23.61;79.36
40872;BME280;26591;43.264;26.940;2023-07-22T02:39:33;98806.22;;;23.24;79.66
40872;BME280;26591;43.264;26.940;2023-07-22T02:41:59;98808.16;;;23.01;80.08
40872;BME280;26591;43.264;26.940;2023-07-22T02:44:24;98810.94;;;22.62;81.68
40872;BME280;26591;43.264;26.940;2023-07-22T02:46:50;98806.16;;;22.69;82.42
40872;BME280;26591;43.264;26.940;2023-07-22T02:49:15;98801.63;;;22.97;81.15
40872;BME280;26591;43.264;26.940;2023-07-22T02:51:41;98797.72;;;23.10;80.44
40872;BME280;26591;43.264;26.940;2023-07-22T02:54:06;98801.25;;;22.89;80.16
40872;BME280;26591;43.264;26.940;2023-07-22T02:56:32;98799.19;;;22.96;80.54
40872;BME280;26591;43.264;26.940;2023-07-22T02:58:57;98799.69;;;22.93;80.15
40872;BME280;26591;43.264;26.940;2023-07-22T03:01:23;98807.59;;;22.99;79.56
40872;BME280;26591;43.264;26.940;2023-07-22T03:03:50;98829.81;;;23.07;80.40
40872;BME280;26591;43.264;26.940;2023-07-22T03:06:15;98835.38;;;23.22;79.15
40872;BME280;26591;43.264;26.940;2023-07-22T03:08:41;98832.03;;;23.15;78.95
40872;BME280;26591;43.264;26.940;2023-07-22T03:11:06;98831.09;;;23.26;78.57
40872;BME280;26591;43.264;26.940;2023-07-22T03:13:32;98821.84;;;23.50;77.62
40872;BME280;26591;43.264;26.940;2023-07-22T03:15:59;98826.69;;;23.47;77.54
40872;BME280;26591;43.264;26.940;2023-07-22T03:18:24;98818.44;;;23.59;76.59
40872;BME280;26591;43.264;26.940;2023-07-22T03:20:50;98825.59;;;23.76;76.05
40872;BME280;26591;43.264;26.940;2023-07-22T03:23:17;98829.59;;;23.41;77.86
40872;BME280;26591;43.264;26.940;2023-07-22T03:25:42;98822.50;;;23.29;78.01
40872;BME280;26591;43.264;26.940;2023-07-22T03:28:08;98833.88;;;23.64;76.45
40872;BME280;26591;43.264;26.940;2023-07-22T03:30:33;98827.19;;;23.72;75.66
40872;BME280;26591;43.264;26.940;2023-07-22T03:32:59;98828.00;;;23.72;75.48
40872;BME280;26591;43.264;26.940;2023-07-22T03:35:26;98810.25;;;23.82;75.71
40872;BME280;26591;43.264;26.940;2023-07-22T03:37:51;98809.50;;;23.91;75.41
40872;BME280;26591;43.264;26.940;2023-07-22T03:40:17;98810.38;;;23.97;74.96
40872;BME280;26591;43.264;26.940;2023-07-22T03:42:48;98816.41;;;24.10;75.69
40872;BME280;26591;43.264;26.940;2023-07-22T03:45:14;98808.94;;;23.89;75.72
40872;BME280;26591;43.264;26.940;2023-07-22T03:47:40;98796.84;;;24.40;75.32
40872;BME280;26591;43.264;26.940;2023-07-22T03:50:07;98794.63;;;24.95;73.97
40872;BME280;26591;43.264;26.940;2023-07-22T03:52:32;98792.03;;;25.63;70.74
40872;BME280;26591;43.264;26.940;2023-07-22T03:54:58;98791.13;;;26.03;68.08
40872;BME280;26591;43.264;26.940;2023-07-22T03:57:27;98796.81;;;26.28;67.25
40872;BME280;26591;43.264;26.940;2023-07-22T03:59:54;98798.13;;;26.41;66.17
40872;BME280;26591;43.264;26.940;2023-07-22T04:02:20;98791.56;;;26.57;66.40
40872;BME280;26591;43.264;26.940;2023-07-22T04:04:45;98800.13;;;26.85;65.32
40872;BME280;26591;43.264;26.940;2023-07-22T04:07:11;98793.06;;;26.89;64.42
40872;BME280;26591;43.264;26.940;2023-07-22T04:09:36;98801.50;;;26.77;64.96
40872;BME280;26591;43.264;26.940;2023-07-22T04:12:02;98800.69;;;26.82;64.46
40872;BME280;26591;43.264;26.940;2023-07-22T04:14:27;98794.16;;;26.78;64.12
40872;BME280;26591;43.264;26.940;2023-07-22T04:16:53;98806.38;;;26.75;64.91
40872;BME280;26591;43.264;26.940;2023-07-22T04:19:18;98799.72;;;27.13;64.51
40872;BME280;26591;43.264;26.940;2023-07-22T04:21:44;98805.47;;;27.46;63.95
40872;BME280;26591;43.264;26.940;2023-07-22T04:24:09;98803.78;;;27.84;62.38
40872;BME280;26591;43.264;26.940;2023-07-22T04:26:35;98809.25;;;28.14;61.66
40872;BME280;26591;43.264;26.940;2023-07-22T04:29:01;98809.88;;;28.54;60.95
40872;BME280;26591;43.264;26.940;2023-07-22T04:31:26;98806.78;;;29.23;58.69
40872;BME280;26591;43.264;26.940;2023-07-22T04:33:52;98806.75;;;29.95;56.38
40872;BME280;26591;43.264;26.940;2023-07-22T04:36:18;98815.22;;;30.54;55.23
40872;BME280;26591;43.264;26.940;2023-07-22T04:38:43;98815.25;;;30.91;52.76
40872;BME280;26591;43.264;26.940;2023-07-22T04:41:08;98822.28;;;31.20;52.48
40872;BME280;26591;43.264;26.940;2023-07-22T04:43:34;98824.28;;;31.28;52.29
40872;BME280;26591;43.264;26.940;2023-07-22T04:45:59;98828.66;;;31.52;51.40
40872;BME280;26591;43.264;26.940;2023-07-22T04:48:25;98826.19;;;31.50;50.82
40872;BME280;26591;43.264;26.940;2023-07-22T04:50:51;98829.81;;;31.83;50.71
40872;BME280;26591;43.264;26.940;2023-07-22T04:53:18;98818.09;;;32.22;48.94
40872;BME280;26591;43.264;26.940;2023-07-22T04:55:43;98825.59;;;32.39;49.05
40872;BME280;26591;43.264;26.940;2023-07-22T04:58:09;98818.03;;;33.12;46.92
40872;BME280;26591;43.264;26.940;2023-07-22T05:00:36;98826.09;;;33.17;47.01
40872;BME280;26591;43.264;26.940;2023-07-22T05:03:03;98818.50;;;32.96;46.38
40872;BME280;26591;43.264;26.940;2023-07-22T05:05:28;98813.56;;;32.58;47.95
40872;BME280;26591;43.264;26.940;2023-07-22T05:07:54;98798.38;;;33.01;46.52
40872;BME280;26591;43.264;26.940;2023-07-22T05:10:20;98809.97;;;33.15;47.09
40872;BME280;26591;43.264;26.940;2023-07-22T05:12:46;98810.78;;;33.33;45.96
40872;BME280;26591;43.264;26.940;2023-07-22T05:15:12;98804.81;;;33.14;46.51
40872;BME280;26591;43.264;26.940;2023-07-22T05:17:39;98801.09;;;32.92;47.18
40872;BME280;26591;43.264;26.940;2023-07-22T05:20:05;98791.78;;;32.04;48.52
40872;BME280;26591;43.264;26.940;2023-07-22T05:22:32;98809.47;;;32.87;47.27
40872;BME280;26591;43.264;26.940;2023-07-22T05:24:59;98802.53;;;32.90;46.33
40872;BME280;26591;43.264;26.940;2023-07-22T05:27:24;98793.41;;;32.05;47.14
40872;BME280;26591;43.264;26.940;2023-07-22T05:29:50;98785.88;;;31.79;49.44
40872;BME280;26591;43.264;26.940;2023-07-22T05:32:16;98798.38;;;32.34;46.19
40872;BME280;26591;43.264;26.940;2023-07-22T05:34:43;98795.38;;;32.80;44.80
40872;BME280;26591;43.264;26.940;2023-07-22T05:37:08;98801.69;;;32.80;44.68
40872;BME280;26591;43.264;26.940;2023-07-22T05:39:34;98793.66;;;32.84;44.95
40872;BME280;26591;43.264;26.940;2023-07-22T05:41:59;98810.63;;;33.04;44.13
40872;BME280;26591;43.264;26.940;2023-07-22T05:44:25;98804.31;;;33.12;43.79
40872;BME280;26591;43.264;26.940;2023-07-22T05:46:50;98807.88;;;32.95;44.61
40872;BME280;26591;43.264;26.940;2023-07-22T05:49:16;98800.91;;;31.90;47.00
40872;BME280;26591;43.264;26.940;2023-07-22T05:51:41;98807.84;;;32.86;46.02
40872;BME280;26591;43.264;26.940;2023-07-22T05:54:07;98805.28;;;33.16;44.65
40872;BME280;26591;43.264;26.940;2023-07-22T05:56:32;98815.41;;;33.68;43.62
40872;BME280;26591;43.264;26.940;2023-07-22T05:58:58;98819.56;;;33.92;43.30
40872;BME280;26591;43.264;26.940;2023-07-22T06:01:24;98816.75;;;34.57;42.38
40872;BME280;26591;43.264;26.940;2023-07-22T06:03:50;98822.81;;;35.35;40.72
40872;BME280;26591;43.264;26.940;2023-07-22T06:06:16;98825.75;;;35.72;40.27
40872;BME280;26591;43.264;26.940;2023-07-22T06:08:41;98829.72;;;36.21;39.39
40872;BME280;26591;43.264;26.940;2023-07-22T06:11:07;98829.50;;;36.39;39.08
40872;BME280;26591;43.264;26.940;2023-07-22T06:13:33;98825.81;;;36.97;37.99
40872;BME280;26591;43.264;26.940;2023-07-22T06:15:58;98820.81;;;37.15;38.16
40872;BME280;26591;43.264;26.940;2023-07-22T06:18:24;98821.03;;;35.85;39.25
40872;BME280;26591;43.264;26.940;2023-07-22T06:20:50;98819.75;;;36.04;39.16
40872;BME280;26591;43.264;26.940;2023-07-22T06:23:15;98826.09;;;35.83;39.45
40872;BME280;26591;43.264;26.940;2023-07-22T06:25:41;98821.56;;;36.12;39.46
40872;BME280;26591;43.264;26.940;2023-07-22T06:28:07;98831.47;;;36.75;38.71
40872;BME280;26591;43.264;26.940;2023-07-22T06:30:33;98824.88;;;37.05;37.44
40872;BME280;26591;43.264;26.940;2023-07-22T06:32:58;98829.66;;;37.20;37.61
40872;BME280;26591;43.264;26.940;2023-07-22T06:35:24;98831.19;;;37.46;37.16
40872;BME280;26591;43.264;26.940;2023-07-22T06:37:49;98816.50;;;37.30;37.23
40872;BME280;26591;43.264;26.940;2023-07-22T06:40:15;98821.94;;;37.54;36.53
40872;BME280;26591;43.264;26.940;2023-07-22T06:42:40;98814.75;;;37.37;36.87
40872;BME280;26591;43.264;26.940;2023-07-22T06:45:06;98819.09;;;37.51;37.32
40872;BME280;26591;43.264;26.940;2023-07-22T06:47:32;98822.47;;;37.03;37.41
40872;BME280;26591;43.264;26.940;2023-07-22T06:49:58;98815.94;;;36.95;37.30
40872;BME280;26591;43.264;26.940;2023-07-22T06:52:23;98814.88;;;36.88;38.16
40872;BME280;26591;43.264;26.940;2023-07-22T06:54:49;98828.34;;;37.43;36.83
40872;BME280;26591;43.264;26.940;2023-07-22T06:57:15;98826.13;;;37.48;37.00
40872;BME280;26591;43.264;26.940;2023-07-22T06:59:40;98826.53;;;37.22;37.26
40872;BME280;26591;43.264;26.940;2023-07-22T07:02:06;98817.41;;;35.94;38.40
40872;BME280;26591;43.264;26.940;2023-07-22T07:04:32;98815.72;;;36.01;38.51
40872;BME280;26591;43.264;26.940;2023-07-22T07:06:58;98807.06;;;35.44;40.67
40872;BME280;26591;43.264;26.940;2023-07-22T07:09:24;98803.97;;;34.61;41.58
40872;BME280;26591;43.264;26.940;2023-07-22T07:11:50;98804.81;;;35.04;40.41
40872;BME280;26591;43.264;26.940;2023-07-22T07:14:17;98806.22;;;35.78;39.45
40872;BME280;26591;43.264;26.940;2023-07-22T07:16:43;98794.03;;;34.99;40.88
40872;BME280;26591;43.264;26.940;2023-07-22T07:19:09;98796.22;;;35.06;40.62
40872;BME280;26591;43.264;26.940;2023-07-22T07:21:35;98805.53;;;34.92;41.09
40872;BME280;26591;43.264;26.940;2023-07-22T07:24:00;98797.94;;;34.89;41.08
40872;BME280;26591;43.264;26.940;2023-07-22T07:26:27;98806.34;;;34.33;41.70
40872;BME280;26591;43.264;26.940;2023-07-22T07:28:52;98795.88;;;34.26;41.45
40872;BME280;26591;43.264;26.940;2023-07-22T07:31:18;98804.84;;;34.35;41.92
40872;BME280;26591;43.264;26.940;2023-07-22T07:33:43;98804.81;;;34.74;40.83
40872;BME280;26591;43.264;26.940;2023-07-22T07:36:09;98804.31;;;35.02;40.27
40872;BME280;26591;43.264;26.940;2023-07-22T07:38:35;98802.44;;;35.70;39.29
40872;BME280;26591;43.264;26.940;2023-07-22T07:41:04;98797.88;;;35.40;39.90
40872;BME280;26591;43.264;26.940;2023-07-22T07:43:30;98805.41;;;36.11;39.27
40872;BME280;26591;43.264;26.940;2023-07-22T07:46:21;98804.63;;;36.47;37.68
40872;BME280;26591;43.264;26.940;2023-07-22T07:48:52;98800.56;;;35.49;39.11
40872;BME280;26591;43.264;26.940;2023-07-22T07:51:19;98804.16;;;36.45;38.14
40872;BME280;26591;43.264;26.940;2023-07-22T07:53:46;98805.91;;;37.44;36.57
40872;BME280;26591;43.264;26.940;2023-07-22T07:56:17;98807.72;;;37.84;34.56
40872;BME280;26591;43.264;26.940;2023-07-22T07:58:44;98801.53;;;37.43;33.60
40872;BME280;26591;43.264;26.940;2023-07-22T08:01:11;98806.88;;;36.95;33.65
40872;BME280;26591;43.264;26.940;2023-07-22T08:03:38;98806.03;;;37.35;33.04
40872;BME280;26591;43.264;26.940;2023-07-22T08:06:03;98805.75;;;37.53;32.13
40872;BME280;26591;43.264;26.940;2023-07-22T08:08:29;98810.38;;;37.65;31.55
40872;BME280;26591;43.264;26.940;2023-07-22T08:11:14;98800.06;;;37.78;32.36
40872;BME280;26591;43.264;26.940;2023-07-22T08:13:41;98793.97;;;38.00;31.81
40872;BME280;26591;43.264;26.940;2023-07-22T08:16:08;98797.25;;;38.06;32.31
40872;BME280;26591;43.264;26.940;2023-07-22T08:18:35;98792.53;;;37.91;31.75
40872;BME280;26591;43.264;26.940;2023-07-22T08:21:02;98798.47;;;37.61;32.33
40872;BME280;26591;43.264;26.940;2023-07-22T08:23:29;98808.66;;;37.03;33.31
40872;BME280;26591;43.264;26.940;2023-07-22T08:25:54;98786.88;;;37.26;33.52
40872;BME280;26591;43.264;26.940;2023-07-22T08:28:20;98797.63;;;37.03;33.57
40872;BME280;26591;43.264;26.940;2023-07-22T08:30:47;98795.88;;;37.11;33.77
40872;BME280;26591;43.264;26.940;2023-07-22T08:33:14;98795.06;;;36.70;34.27
40872;BME280;26591;43.264;26.940;2023-07-22T08:35:40;98787.91;;;36.81;33.39
40872;BME280;26591;43.264;26.940;2023-07-22T08:38:07;98781.75;;;36.34;34.45
40872;BME280;26591;43.264;26.940;2023-07-22T08:40:37;98796.47;;;36.51;33.88
40872;BME280;26591;43.264;26.940;2023-07-22T08:43:04;98792.28;;;36.82;33.98
40872;BME280;26591;43.264;26.940;2023-07-22T08:45:32;98789.66;;;36.73;33.56
40872;BME280;26591;43.264;26.940;2023-07-22T08:47:59;98787.25;;;36.72;33.16
40872;BME280;26591;43.264;26.940;2023-07-22T08:50:30;98792.97;;;36.79;33.37
40872;BME280;26591;43.264;26.940;2023-07-22T08:52:59;98781.00;;;37.00;32.48
40872;BME280;26591;43.264;26.940;2023-07-22T08:55:26;98781.09;;;37.03;32.68
40872;BME280;26591;43.264;26.940;2023-07-22T08:57:53;98785.81;;;37.03;32.25
40872;BME280;26591;43.264;26.940;2023-07-22T09:00:20;98776.72;;;37.02;32.29
40872;BME280;26591;43.264;26.940;2023-07-22T09:02:46;98767.56;;;36.98;31.78
40872;BME280;26591;43.264;26.940;2023-07-22T09:05:11;98777.19;;;36.92;31.16
40872;BME280;26591;43.264;26.940;2023-07-22T09:07:37;98758.69;;;37.05;30.96
40872;BME280;26591;43.264;26.940;2023-07-22T09:10:05;98758.81;;;37.24;30.76
40872;BME280;26591;43.264;26.940;2023-07-22T09:12:33;98760.44;;;37.25;30.90
40872;BME280;26591;43.264;26.940;2023-07-22T09:15:09;98761.38;;;37.46;30.76
40872;BME280;26591;43.264;26.940;2023-07-22T09:17:36;98767.97;;;37.41;29.60
40872;BME280;26591;43.264;26.940;2023-07-22T09:20:02;98759.84;;;37.04;30.33
40872;BME280;26591;43.264;26.940;2023-07-22T09:22:29;98765.22;;;37.13;30.74
40872;BME280;26591;43.264;26.940;2023-07-22T09:25:22;98756.34;;;37.19;30.79
40872;BME280;26591;43.264;26.940;2023-07-22T09:27:49;98757.66;;;37.25;31.27
40872;BME280;26591;43.264;26.940;2023-07-22T09:30:34;98759.03;;;37.32;30.36
40872;BME280;26591;43.264;26.940;2023-07-22T09:33:01;98763.34;;;37.17;30.69
40872;BME280;26591;43.264;26.940;2023-07-22T09:35:29;98755.13;;;37.33;30.32
40872;BME280;26591;43.264;26.940;2023-07-22T09:37:55;98752.38;;;37.04;28.98
40872;BME280;26591;43.264;26.940;2023-07-22T09:40:24;98743.97;;;37.29;28.88
40872;BME280;26591;43.264;26.940;2023-07-22T09:42:51;98747.69;;;37.21;29.66
40872;BME280;26591;43.264;26.940;2023-07-22T09:45:19;98746.09;;;37.48;29.84
40872;BME280;26591;43.264;26.940;2023-07-22T09:47:50;98746.28;;;37.71;29.89
40872;BME280;26591;43.264;26.940;2023-07-22T09:50:18;98743.53;;;38.04;29.95
40872;BME280;26591;43.264;26.940;2023-07-22T09:52:51;98736.94;;;37.76;29.20
40872;BME280;26591;43.264;26.940;2023-07-22T09:55:20;98735.13;;;37.52;29.40
40872;BME280;26591;43.264;26.940;2023-07-22T09:57:51;98739.75;;;37.48;29.31
40872;BME280;26591;43.264;26.940;2023-07-22T10:00:18;98745.53;;;37.14;28.67
40872;BME280;26591;43.264;26.940;2023-07-22T10:02:48;98745.56;;;37.43;28.40
40872;BME280;26591;43.264;26.940;2023-07-22T10:05:19;98740.97;;;37.34;29.50
40872;BME280;26591;43.264;26.940;2023-07-22T10:07:53;98740.03;;;37.75;29.04
40872;BME280;26591;43.264;26.940;2023-07-22T10:10:22;98739.50;;;37.69;28.85
40872;BME280;26591;43.264;26.940;2023-07-22T10:12:49;98736.88;;;37.89;28.41
40872;BME280;26591;43.264;26.940;2023-07-22T10:15:15;98744.06;;;37.93;28.42
40872;BME280;26591;43.264;26.940;2023-07-22T10:17:43;98750.56;;;37.85;28.47
40872;BME280;26591;43.264;26.940;2023-07-22T10:20:10;98748.59;;;38.01;28.23
40872;BME280;26591;43.264;26.940;2023-07-22T10:22:43;98736.06;;;38.04;28.38
40872;BME280;26591;43.264;26.940;2023-07-22T10:25:19;98744.56;;;37.67;29.69
40872;BME280;26591;43.264;26.940;2023-07-22T10:27:47;98741.22;;;37.90;30.11
40872;BME280;26591;43.264;26.940;2023-07-22T10:30:14;98724.81;;;38.13;30.08
40872;BME280;26591;43.264;26.940;2023-07-22T10:32:51;98723.66;;;38.85;28.87
40872;BME280;26591;43.264;26.940;2023-07-22T10:38:09;98733.69;;;38.94;28.46
40872;BME280;26591;43.264;26.940;2023-07-22T10:40:52;98729.31;;;39.32;28.63
40872;BME280;26591;43.264;26.940;2023-07-22T10:43:32;98729.56;;;39.46;28.14
40872;BME280;26591;43.264;26.940;2023-07-22T10:46:12;98729.19;;;39.48;28.78
40872;BME280;26591;43.264;26.940;2023-07-22T10:48:39;98728.19;;;39.36;28.36
40872;BME280;26591;43.264;26.940;2023-07-22T10:51:07;98733.59;;;39.29;28.29
40872;BME280;26591;43.264;26.940;2023-07-22T10:53:36;98730.47;;;39.31;28.67
40872;BME280;26591;43.264;26.940;2023-07-22T11:06:51;98733.44;;;39.22;28.71
40872;BME280;26591;43.264;26.940;2023-07-22T11:14:34;98741.91;;;38.90;28.90
40872;BME280;26591;43.264;26.940;2023-07-22T11:17:02;98743.03;;;38.34;30.14
40872;BME280;26591;43.264;26.940;2023-07-22T11:19:32;98742.47;;;38.99;29.56
40872;BME280;26591;43.264;26.940;2023-07-22T11:21:59;98728.84;;;39.10;29.43
40872;BME280;26591;43.264;26.940;2023-07-22T11:24:24;98730.94;;;38.58;29.49
40872;BME280;26591;43.264;26.940;2023-07-22T11:26:53;98734.34;;;38.15;30.12
40872;BME280;26591;43.264;26.940;2023-07-22T11:29:19;98732.66;;;38.11;30.13
40872;BME280;26591;43.264;26.940;2023-07-22T11:31:46;98736.84;;;38.76;29.00
40872;BME280;26591;43.264;26.940;2023-07-22T11:34:15;98738.88;;;38.79;29.34
40872;BME280;26591;43.264;26.940;2023-07-22T11:36:41;98742.53;;;38.64;29.39
40872;BME280;26591;43.264;26.940;2023-07-22T11:39:15;98741.44;;;38.68;29.82
40872;BME280;26591;43.264;26.940;2023-07-22T11:41:42;98739.25;;;38.58;29.63
40872;BME280;26591;43.264;26.940;2023-07-22T11:44:09;98743.16;;;38.57;29.19
40872;BME280;26591;43.264;26.940;2023-07-22T11:46:58;98740.75;;;38.91;28.42
40872;BME280;26591;43.264;26.940;2023-07-22T11:49:24;98743.53;;;38.55;28.83
40872;BME280;26591;43.264;26.940;2023-07-22T11:51:51;98743.63;;;38.07;29.37
40872;BME280;26591;43.264;26.940;2023-07-22T11:54:20;98728.66;;;38.08;29.57
40872;BME280;26591;43.264;26.940;2023-07-22T11:56:47;98723.66;;;37.98;30.12
40872;BME280;26591;43.264;26.940;2023-07-22T11:59:13;98723.41;;;38.03;29.95
40872;BME280;26591;43.264;26.940;2023-07-22T12:01:39;98728.69;;;38.44;29.75
40872;BME280;26591;43.264;26.940;2023-07-22T12:04:10;98729.94;;;38.30;29.74
40872;BME280;26591;43.264;26.940;2023-07-22T12:06:36;98718.28;;;38.21;29.77
40872;BME280;26591;43.264;26.940;2023-07-22T12:09:02;98717.97;;;38.42;29.74
40872;BME280;26591;43.264;26.940;2023-07-22T12:11:32;98716.91;;;38.47;30.13
40872;BME280;26591;43.264;26.940;2023-07-22T12:14:11;98699.81;;;38.25;29.70
40872;BME280;26591;43.264;26.940;2023-07-22T12:16:39;98707.91;;;38.34;29.78
40872;BME280;26591;43.264;26.940;2023-07-22T12:19:06;98714.41;;;38.06;30.48
40872;BME280;26591;43.264;26.940;2023-07-22T12:21:32;98712.75;;;38.37;30.11
40872;BME280;26591;43.264;26.940;2023-07-22T12:23:57;98707.22;;;38.37;30.25
40872;BME280;26591;43.264;26.940;2023-07-22T12:26:23;98710.72;;;38.54;30.36
40872;BME280;26591;43.264;26.940;2023-07-22T12:28:49;98707.13;;;38.89;29.94
40872;BME280;26591;43.264;26.940;2023-07-22T12:31:14;98713.66;;;39.00;29.37
40872;BME280;26591;43.264;26.940;2023-07-22T12:33:40;98724.94;;;38.72;29.86
40872;BME280;26591;43.264;26.940;2023-07-22T12:36:05;98726.97;;;38.75;30.03
40872;BME280;26591;43.264;26.940;2023-07-22T12:38:31;98725.59;;;38.85;30.11
40872;BME280;26591;43.264;26.940;2023-07-22T12:40:57;98715.84;;;38.91;29.57
40872;BME280;26591;43.264;26.940;2023-07-22T12:43:22;98711.97;;;39.15;29.04
40872;BME280;26591;43.264;26.940;2023-07-22T12:45:48;98700.47;;;39.13;29.57
40872;BME280;26591;43.264;26.940;2023-07-22T12:48:13;98712.03;;;38.60;29.68
40872;BME280;26591;43.264;26.940;2023-07-22T12:50:39;98698.81;;;38.89;29.35
40872;BME280;26591;43.264;26.940;2023-07-22T12:53:04;98704.41;;;38.92;28.95
40872;BME280;26591;43.264;26.940;2023-07-22T12:55:30;98696.19;;;38.76;29.57
40872;BME280;26591;43.264;26.940;2023-07-22T12:57:55;98697.19;;;38.49;29.85
40872;BME280;26591;43.264;26.940;2023-07-22T13:00:21;98698.44;;;38.90;29.65
40872;BME280;26591;43.264;26.940;2023-07-22T13:02:47;98705.41;;;38.65;29.54
40872;BME280;26591;43.264;26.940;2023-07-22T13:05:13;98697.19;;;38.49;29.36
40872;BME280;26591;43.264;26.940;2023-07-22T13:07:39;98695.63;;;38.67;29.30